createdAt,value
2023-02-07T00:07:18.101Z,185.10
2023-02-07T00:17:24.371Z,189.00
2023-02-07T00:27:31.034Z,182.60
2023-02-07T00:37:37.134Z,164.70
2023-02-07T00:47:43.094Z,170.60
2023-02-07T00:57:49.622Z,177.60
2023-02-07T01:07:55.733Z,165.90
2023-02-07T01:18:01.745Z,176.20
2023-02-07T01:28:08.315Z,180.80
2023-02-07T01:38:14.387Z,189.10
2023-02-07T01:48:24.917Z,146.10
2023-02-07T01:58:32.219Z,164.80
2023-02-07T02:08:38.128Z,151.10
2023-02-07T02:18:54.198Z,139.20
2023-02-07T02:29:41.880Z,112.50
2023-02-07T02:39:57.622Z,97.20
2023-02-07T02:50:04.010Z,78.90
2023-02-07T03:00:32.466Z,72.90
2023-02-07T03:10:46.639Z,61.80
2023-02-07T03:20:57.636Z,60.20
2023-02-07T03:31:06.800Z,57.10
2023-02-07T03:41:17.680Z,53.70
2023-02-07T03:51:23.671Z,50.70
2023-02-07T04:01:29.902Z,59.70
2023-02-07T04:11:35.901Z,58.00
2023-02-07T04:21:42.155Z,57.50
2023-02-07T04:31:48.151Z,53.10
2023-02-07T04:41:54.338Z,63.80
2023-02-07T04:52:00.343Z,77.30
2023-02-07T05:02:06.262Z,68.30
2023-02-07T05:12:13.154Z,63.70
2023-02-07T05:22:18.953Z,65.30
2023-02-07T05:32:42.284Z,65.90
2023-02-07T05:43:18.600Z,65.30
2023-02-07T05:53:24.585Z,59.80
2023-02-07T06:03:30.981Z,65.40
2023-02-07T06:13:37.000Z,61.00
2023-02-07T06:23:42.941Z,54.50
2023-02-07T06:33:48.879Z,51.40
2023-02-07T06:43:55.089Z,62.00
2023-02-07T06:54:03.382Z,50.10
2023-02-07T07:04:09.312Z,47.60
2023-02-07T07:14:15.213Z,46.70
2023-02-07T07:24:21.385Z,44.20
2023-02-07T07:34:27.243Z,41.40
2023-02-07T07:44:33.161Z,43.20
2023-02-07T07:54:39.063Z,40.20
2023-02-07T08:04:44.925Z,37.30
2023-02-07T08:14:50.807Z,39.10
2023-02-07T08:35:02.156Z,34.60
2023-02-07T08:45:08.984Z,34.30
2023-02-07T08:55:14.840Z,38.30
2023-02-07T09:05:20.726Z,39.40
2023-02-07T09:15:26.694Z,31.20
2023-02-07T09:35:41.644Z,30.60
2023-02-07T09:45:50.595Z,32.00
2023-02-07T09:55:59.445Z,36.30
2023-02-07T10:06:18.304Z,34.00
2023-02-07T10:16:39.202Z,31.10
2023-02-07T10:26:49.566Z,37.50
2023-02-07T10:36:58.198Z,32.50
2023-02-07T10:47:07.738Z,33.00
2023-02-07T10:57:21.233Z,30.40
2023-02-07T11:07:29.311Z,35.10
2023-02-07T11:17:38.272Z,31.80
2023-02-07T11:27:48.024Z,26.10
2023-02-07T11:38:04.616Z,22.20
2023-02-07T11:48:19.943Z,13.10
2023-02-07T11:58:34.379Z,12.50
2023-02-07T12:08:42.745Z,16.20
2023-02-07T12:18:55.074Z,18.30
2023-02-07T12:29:16.452Z,10.50
2023-02-07T12:39:31.176Z,9.50
2023-02-07T12:50:04.688Z,10.20
2023-02-07T13:00:16.484Z,13.10
2023-02-07T13:10:31.747Z,14.10
2023-02-07T13:20:52.265Z,14.00
2023-02-07T13:31:00.053Z,19.00
2023-02-07T13:41:13.232Z,17.50
2023-02-07T13:51:28.707Z,16.60
2023-02-07T14:01:37.104Z,21.00
2023-02-07T14:11:45.066Z,18.50
2023-02-07T14:22:17.984Z,19.20
2023-02-07T14:32:32.650Z,22.70
2023-02-07T14:42:39.572Z,18.30
2023-02-07T14:52:47.637Z,18.80
2023-02-07T15:02:57.798Z,20.90
2023-02-07T15:13:07.269Z,20.00
2023-02-07T15:23:16.727Z,19.40
2023-02-07T15:33:27.929Z,21.60
2023-02-07T15:43:35.814Z,22.50
2023-02-07T15:53:41.955Z,27.30
2023-02-07T16:13:56.698Z,19.80
2023-02-07T16:24:06.476Z,22.30
2023-02-07T16:34:15.198Z,18.40
2023-02-07T16:44:24.272Z,28.00
2023-02-07T16:54:30.479Z,23.20
2023-02-07T17:04:36.574Z,28.10
2023-02-07T17:14:42.598Z,23.20
2023-02-07T17:24:48.947Z,23.60
2023-02-07T17:34:54.896Z,22.70
2023-02-07T17:45:00.800Z,22.60
2023-02-07T17:55:07.845Z,19.70
2023-02-07T18:05:13.787Z,23.80
2023-02-07T18:15:20.314Z,20.10
2023-02-07T18:25:28.068Z,22.30
2023-02-07T18:35:34.653Z,22.60
2023-02-07T18:45:43.689Z,27.70
2023-02-07T18:55:49.610Z,25.70
2023-02-07T19:05:59.312Z,28.20
2023-02-07T19:16:07.850Z,26.70
2023-02-07T19:26:13.731Z,31.20
2023-02-07T19:36:22.317Z,26.30
2023-02-07T19:46:28.738Z,31.80
2023-02-07T19:56:36.702Z,32.30
2023-02-07T20:06:42.626Z,31.50
2023-02-07T20:16:49.235Z,24.90
2023-02-07T20:26:55.161Z,34.50
2023-02-07T20:37:01.190Z,23.90
2023-02-07T20:57:12.015Z,15.40
2023-02-07T21:07:18.311Z,21.70
2023-02-07T21:17:24.461Z,20.00
2023-02-07T21:27:30.967Z,9.20
2023-02-07T21:37:37.160Z,10.80
2023-02-07T21:47:43.090Z,4.70
2023-02-07T21:57:49.033Z,7.10
2023-02-07T22:17:59.429Z,9.50
2023-02-07T22:28:06.041Z,6.20
2023-02-07T22:38:13.755Z,17.70
2023-02-07T22:48:19.611Z,8.40
2023-02-07T22:58:25.618Z,8.90
2023-02-07T23:08:31.392Z,13.60
2023-02-07T23:18:37.361Z,8.40
2023-02-07T23:28:45.073Z,11.40
2023-02-07T23:38:51.517Z,8.60
2023-02-07T23:48:57.504Z,14.30
2023-02-07T23:59:03.285Z,16.40
